Portada
METAR-TAF:

METAR-TAF

Aeroports :

Orsk, Rússia

latitud: 51-04-18N, longitud: 058-35-48E, altitud: 277 m

Observació

L'informe es va fer fa 35 minuts, a les 20:00 UTC
Vent 6 kt del Oest/Nord-Oest
Temperatura 14°C
Humitat 67%
Pressió 1014 hPa
Visibilitat 10 km o més
sense núvols per sota de 1500 mi sense presència de cumulonimbus.

METAR: UWOR 012000Z 29003MPS CAVOK 14/08 Q1014 R25/CLRD65 NOSIG RMK QFE737/0982

Hora: 01:35 (20:35 UTC)

Pronòstic

L'informe es va fer fa 3 hores i 38 minuts, a les 16:57 UTC
Pronòstic vàlid del 01 a les 18 UTC al 02 a les 03 UTC
Vent 6 kt del Nord/Nord-Oest amb ràfegues de 17 kt
Visibilitat 10 km o més
Núvols disperses a una alçada de 4000 ft
Temporalment
l' 01 a les 18 UTC al 02 a les 03 UTC
Vent 2 kt amb direcció variable

TAF: UWOR 011657Z 0118/0203 33003G09MPS 9999 SCT040 TX12/0121Z TN09/0203Z TEMPO 0118/0203 VRB01MPS

Observacions i pronòstics meteorològics de més de 4000 aeroports (METAR i TAF).

Les estacions disponibles són els punts grocs i vermells al mapa.

Posi el ratolí al punt desitjat per veure el nom de l'estació.

Feu clic per veure les observacions i els pronòstics meteorològics.

Per canviar el mapa: feu clic els botons verds amb una creu de color negre per apropar; al botó verd amb un guió per allunyar la imatge; o en les fletxes verdes per a mapes adjacents.


METAR-TAF: